createdAt,value
2022-10-12T00:01:05.812Z,19.02
2022-10-12T00:03:33.832Z,19.12
2022-10-12T00:06:08.065Z,19.17
2022-10-12T00:08:35.464Z,19.26
2022-10-12T00:11:02.393Z,19.26
2022-10-12T00:13:28.903Z,19.31
2022-10-12T00:15:55.387Z,19.27
2022-10-12T00:18:22.005Z,19.20
2022-10-12T00:20:48.557Z,19.24
2022-10-12T00:23:15.164Z,19.33
2022-10-12T00:25:42.535Z,19.32
2022-10-12T00:28:09.093Z,19.29
2022-10-12T00:30:40.696Z,19.25
2022-10-12T00:33:07.230Z,19.24
2022-10-12T00:35:33.734Z,19.10
2022-10-12T00:38:00.202Z,19.13
2022-10-12T00:40:26.799Z,19.14
2022-10-12T00:42:53.293Z,19.22
2022-10-12T00:45:19.749Z,19.17
2022-10-12T00:47:56.711Z,19.20
2022-10-12T00:50:33.047Z,19.20
2022-10-12T00:53:04.193Z,19.13
2022-10-12T00:55:36.892Z,19.08
2022-10-12T00:58:05.640Z,19.03
2022-10-12T01:00:32.190Z,18.91
2022-10-12T01:02:59.097Z,18.89
2022-10-12T01:05:25.779Z,18.99
2022-10-12T01:07:52.307Z,19.05
2022-10-12T01:10:18.995Z,19.03
2022-10-12T01:12:48.562Z,18.99
2022-10-12T01:15:15.680Z,18.94
2022-10-12T01:18:15.394Z,18.89
2022-10-12T01:20:47.976Z,18.97
2022-10-12T01:23:17.599Z,18.86
2022-10-12T01:26:35.267Z,18.92
2022-10-12T01:29:13.646Z,18.98
2022-10-12T01:32:06.408Z,18.89
2022-10-12T01:35:01.196Z,18.79
2022-10-12T01:37:44.101Z,18.77
2022-10-12T01:40:20.956Z,18.77
2022-10-12T01:42:48.399Z,18.65
2022-10-12T01:45:18.081Z,18.71
2022-10-12T01:47:49.527Z,18.72
2022-10-12T01:50:17.683Z,18.73
2022-10-12T01:53:11.951Z,18.72
2022-10-12T01:56:02.724Z,18.83
2022-10-12T01:59:07.476Z,18.83
2022-10-12T02:01:45.833Z,18.89
2022-10-12T02:04:36.698Z,18.77
2022-10-12T02:07:17.146Z,18.70
2022-10-12T02:09:44.458Z,18.65
2022-10-12T02:12:19.397Z,18.66
2022-10-12T02:14:53.246Z,18.58
2022-10-12T02:17:22.974Z,18.54
2022-10-12T02:19:56.171Z,18.59
2022-10-12T02:22:26.345Z,18.46
2022-10-12T02:24:57.971Z,18.45
2022-10-12T02:27:26.154Z,18.50
2022-10-12T02:29:53.133Z,18.43
2022-10-12T02:32:30.115Z,18.49
2022-10-12T02:35:16.265Z,18.61
2022-10-12T02:38:08.718Z,18.55
2022-10-12T02:40:41.334Z,18.49
2022-10-12T02:43:13.939Z,18.50
2022-10-12T02:45:44.785Z,18.55
2022-10-12T02:48:15.883Z,18.64
2022-10-12T02:50:43.795Z,18.58
2022-10-12T02:53:10.443Z,18.48
2022-10-12T02:56:01.302Z,18.46
2022-10-12T02:58:27.859Z,18.56
2022-10-12T03:00:54.398Z,18.41
2022-10-12T03:03:21.595Z,18.46
2022-10-12T03:05:48.081Z,18.55
2022-10-12T03:08:14.593Z,18.66
2022-10-12T03:10:41.119Z,18.81
2022-10-12T03:13:07.715Z,18.67
2022-10-12T03:15:34.209Z,18.53
2022-10-12T03:18:00.694Z,18.42
2022-10-12T03:20:27.252Z,18.41
2022-10-12T03:22:53.704Z,18.30
2022-10-12T03:25:20.224Z,18.37
2022-10-12T03:27:46.767Z,18.30
2022-10-12T03:30:13.690Z,18.35
2022-10-12T03:32:40.528Z,18.43
2022-10-12T03:35:07.986Z,18.29
2022-10-12T03:37:34.651Z,18.32
2022-10-12T03:40:01.138Z,18.22
2022-10-12T03:42:27.660Z,18.42
2022-10-12T03:44:54.548Z,18.44
2022-10-12T03:47:21.111Z,18.36
2022-10-12T03:49:47.749Z,18.42
2022-10-12T03:52:14.268Z,18.33
2022-10-12T03:54:40.748Z,18.31
2022-10-12T03:57:07.324Z,18.31
2022-10-12T03:59:33.879Z,18.28
2022-10-12T04:02:00.408Z,18.19
2022-10-12T04:04:26.941Z,18.25
2022-10-12T04:06:53.667Z,18.34
2022-10-12T04:09:20.634Z,18.27
2022-10-12T04:11:47.170Z,18.23
2022-10-12T04:14:13.648Z,18.14
2022-10-12T04:16:40.457Z,18.18
2022-10-12T04:19:06.933Z,18.13
2022-10-12T04:21:33.468Z,18.16
2022-10-12T04:24:00.036Z,18.19
2022-10-12T04:26:26.587Z,18.15
2022-10-12T04:28:53.125Z,18.21
2022-10-12T04:31:19.756Z,18.18
2022-10-12T04:33:46.258Z,18.04
2022-10-12T04:36:12.789Z,18.00
2022-10-12T04:38:39.314Z,18.04
2022-10-12T04:41:05.925Z,18.02
2022-10-12T04:43:32.454Z,17.92
2022-10-12T04:46:00.260Z,17.96
2022-10-12T04:48:28.106Z,17.91
2022-10-12T04:50:54.657Z,17.87
2022-10-12T04:53:21.253Z,17.77
2022-10-12T04:55:47.799Z,17.84
2022-10-12T04:58:14.347Z,17.87
2022-10-12T05:00:41.054Z,17.84
2022-10-12T05:03:07.609Z,17.98
2022-10-12T05:05:37.264Z,17.99
2022-10-12T05:08:04.904Z,18.03
2022-10-12T05:10:31.680Z,17.96
2022-10-12T05:12:58.694Z,18.05
2022-10-12T05:15:25.412Z,18.11
2022-10-12T05:17:51.890Z,18.04
2022-10-12T05:20:18.446Z,18.12
2022-10-12T05:22:45.027Z,18.22
2022-10-12T05:25:11.521Z,18.22
2022-10-12T05:27:38.316Z,18.09
2022-10-12T05:30:06.351Z,18.07
2022-10-12T05:32:32.972Z,18.09
2022-10-12T05:35:00.039Z,18.17
2022-10-12T05:37:26.580Z,18.17
2022-10-12T05:39:53.130Z,18.31
2022-10-12T05:42:19.640Z,18.14
2022-10-12T05:44:46.174Z,18.09
2022-10-12T05:47:12.643Z,18.11
2022-10-12T05:49:39.235Z,18.15
2022-10-12T05:52:05.735Z,18.14
2022-10-12T05:54:32.222Z,18.07
2022-10-12T05:56:58.915Z,18.12
2022-10-12T05:59:25.415Z,18.00
2022-10-12T06:01:51.973Z,18.01
2022-10-12T06:04:18.561Z,18.16
2022-10-12T06:06:45.122Z,18.49
2022-10-12T06:09:12.831Z,18.65
2022-10-12T06:11:39.640Z,18.53
2022-10-12T06:14:06.247Z,18.31
2022-10-12T06:16:32.854Z,18.26
2022-10-12T06:18:59.727Z,18.35
2022-10-12T06:21:33.350Z,18.29
2022-10-12T06:24:03.173Z,18.23
2022-10-12T06:26:29.812Z,18.24
2022-10-12T06:28:56.519Z,18.31
2022-10-12T06:31:23.442Z,18.31
2022-10-12T06:33:51.012Z,18.40
2022-10-12T06:36:17.878Z,18.37
2022-10-12T06:38:44.452Z,18.29
2022-10-12T06:41:11.226Z,18.48
2022-10-12T06:43:37.862Z,18.43
2022-10-12T06:46:04.473Z,18.04
2022-10-12T06:48:31.194Z,17.97
2022-10-12T06:50:58.227Z,18.16
2022-10-12T06:53:28.586Z,18.32
2022-10-12T06:55:55.123Z,18.28
2022-10-12T06:58:21.587Z,18.26
2022-10-12T07:00:48.104Z,18.23
2022-10-12T07:03:14.702Z,18.24
2022-10-12T07:05:41.547Z,18.23
2022-10-12T07:08:08.385Z,18.44
2022-10-12T07:10:35.187Z,18.69
2022-10-12T07:13:01.724Z,18.61
2022-10-12T07:15:28.193Z,18.63
2022-10-12T07:17:54.802Z,18.63
2022-10-12T07:20:21.892Z,18.48
2022-10-12T07:22:48.468Z,18.50
2022-10-12T07:25:15.119Z,18.51
2022-10-12T07:27:42.016Z,18.44
2022-10-12T07:30:09.435Z,18.19
2022-10-12T07:32:36.543Z,18.15
2022-10-12T07:35:03.202Z,18.26
2022-10-12T07:37:29.677Z,18.38
2022-10-12T07:39:57.691Z,18.36
2022-10-12T07:42:25.389Z,18.20
2022-10-12T07:44:52.169Z,18.33
2022-10-12T07:47:19.439Z,18.52
2022-10-12T07:49:46.270Z,19.14
2022-10-12T07:52:13.022Z,19.10
2022-10-12T07:54:39.707Z,19.20
2022-10-12T07:57:06.826Z,19.31
2022-10-12T07:59:33.323Z,19.33
2022-10-12T08:01:59.910Z,19.26
2022-10-12T08:04:26.533Z,18.72
2022-10-12T08:06:53.078Z,18.79
2022-10-12T08:09:19.976Z,18.65
2022-10-12T08:11:46.642Z,18.59
2022-10-12T08:14:15.612Z,18.94
2022-10-12T08:16:45.496Z,18.75
2022-10-12T08:19:13.168Z,18.65
2022-10-12T08:21:41.170Z,18.58
2022-10-12T08:24:09.055Z,18.81
2022-10-12T08:26:38.137Z,18.60
2022-10-12T08:29:06.317Z,18.43
2022-10-12T08:31:32.891Z,18.58
2022-10-12T08:33:59.743Z,18.53
2022-10-12T08:36:29.043Z,18.77
2022-10-12T08:38:55.891Z,18.65
2022-10-12T08:41:56.419Z,18.87
2022-10-12T08:45:12.442Z,19.04
2022-10-12T08:47:46.608Z,18.89
2022-10-12T08:50:27.070Z,18.96
2022-10-12T08:53:11.067Z,19.07
2022-10-12T08:55:44.257Z,19.07
2022-10-12T08:58:23.323Z,18.99
2022-10-12T09:00:55.193Z,18.74
2022-10-12T09:03:39.085Z,18.87
2022-10-12T09:06:20.035Z,18.87
2022-10-12T09:08:52.527Z,18.77
2022-10-12T09:11:38.555Z,18.89
2022-10-12T09:14:23.807Z,19.12
2022-10-12T09:16:52.502Z,19.27
2022-10-12T09:19:22.258Z,19.62
2022-10-12T09:21:50.532Z,19.88
2022-10-12T09:24:28.788Z,20.12
2022-10-12T09:27:00.662Z,20.13
2022-10-12T09:29:31.230Z,20.07
2022-10-12T09:32:00.888Z,20.29
2022-10-12T09:34:27.494Z,20.18
2022-10-12T09:36:55.636Z,19.72
2022-10-12T09:39:29.248Z,19.70
2022-10-12T09:41:56.302Z,19.66
2022-10-12T09:44:36.393Z,19.63
2022-10-12T09:47:24.066Z,19.70
2022-10-12T09:49:52.629Z,19.62
2022-10-12T09:52:24.741Z,19.61
2022-10-12T09:54:54.611Z,19.64
2022-10-12T09:57:25.023Z,19.75
2022-10-12T09:59:52.043Z,19.97
2022-10-12T10:02:23.613Z,19.87
2022-10-12T10:04:51.926Z,19.94
2022-10-12T10:07:31.872Z,20.04
2022-10-12T10:10:14.107Z,20.09
2022-10-12T10:12:56.122Z,20.00
2022-10-12T10:15:28.003Z,20.19
2022-10-12T10:18:00.872Z,20.26
2022-10-12T10:20:34.858Z,20.20
2022-10-12T10:23:03.991Z,19.82
2022-10-12T10:25:30.618Z,20.46
2022-10-12T10:28:20.463Z,20.55
2022-10-12T10:31:00.460Z,21.22
2022-10-12T10:33:27.065Z,21.09
2022-10-12T10:36:19.782Z,20.55
2022-10-12T10:39:06.219Z,20.74
2022-10-12T10:41:41.013Z,21.30
2022-10-12T10:44:25.738Z,21.42
2022-10-12T10:46:54.397Z,21.42
2022-10-12T10:49:36.686Z,21.58
2022-10-12T10:52:05.845Z,21.57
2022-10-12T10:54:35.135Z,21.67
2022-10-12T10:57:06.333Z,21.80
2022-10-12T10:59:35.857Z,21.88
2022-10-12T11:02:16.975Z,21.90
2022-10-12T11:04:47.785Z,21.96
2022-10-12T11:07:26.494Z,21.99
2022-10-12T11:09:57.671Z,21.98
2022-10-12T11:12:31.336Z,22.01
2022-10-12T11:15:19.338Z,22.08
2022-10-12T11:17:50.519Z,22.12
2022-10-12T11:20:29.394Z,22.29
2022-10-12T11:23:05.558Z,22.27
2022-10-12T11:25:48.279Z,22.31
2022-10-12T11:28:16.658Z,22.20
2022-10-12T11:30:50.522Z,22.05
2022-10-12T11:33:27.916Z,22.42
2022-10-12T11:35:56.950Z,22.57
2022-10-12T11:38:38.970Z,22.69
2022-10-12T11:41:34.343Z,22.80
2022-10-12T11:44:15.439Z,22.76
2022-10-12T11:46:49.807Z,22.60
2022-10-12T11:49:25.007Z,22.67
2022-10-12T11:51:54.748Z,22.73
2022-10-12T11:54:34.812Z,22.97
2022-10-12T11:57:10.590Z,22.96
2022-10-12T12:00:25.214Z,23.08
2022-10-12T12:03:18.063Z,22.78
2022-10-12T12:05:44.653Z,22.84
2022-10-12T12:08:39.052Z,23.01
2022-10-12T12:11:19.009Z,23.04
2022-10-12T12:13:46.002Z,23.09
2022-10-12T12:16:12.435Z,23.33
2022-10-12T12:19:13.324Z,23.54
2022-10-12T12:22:18.341Z,23.60
2022-10-12T12:24:55.818Z,23.43
2022-10-12T12:27:30.357Z,23.51
2022-10-12T12:29:58.346Z,23.23
2022-10-12T12:32:27.075Z,23.22
2022-10-12T12:35:00.252Z,23.34
2022-10-12T12:37:33.245Z,23.59
2022-10-12T12:39:59.996Z,23.56
2022-10-12T12:42:34.270Z,23.37
2022-10-12T12:45:38.611Z,23.43
2022-10-12T12:48:09.813Z,23.70
2022-10-12T12:50:38.312Z,23.38
2022-10-12T12:53:18.554Z,23.64
2022-10-12T12:55:47.816Z,23.47
2022-10-12T12:58:47.692Z,23.68
2022-10-12T13:01:55.743Z,23.65
2022-10-12T13:04:44.396Z,23.81
2022-10-12T13:07:35.723Z,23.77
2022-10-12T13:10:02.237Z,23.58
2022-10-12T13:12:31.690Z,23.66
2022-10-12T13:15:16.223Z,23.36
2022-10-12T13:18:34.605Z,23.54
2022-10-12T13:21:06.622Z,23.46
2022-10-12T13:23:33.730Z,23.74
2022-10-12T13:26:08.356Z,23.58
2022-10-12T13:28:39.859Z,23.72
2022-10-12T13:31:16.985Z,23.89
2022-10-12T13:33:57.667Z,23.95
2022-10-12T13:36:27.418Z,24.00
2022-10-12T13:38:59.318Z,23.85
2022-10-12T13:41:31.398Z,23.79
2022-10-12T13:44:00.951Z,24.05
2022-10-12T13:46:48.506Z,24.10
2022-10-12T13:49:22.004Z,24.03
2022-10-12T13:51:55.415Z,24.13
2022-10-12T13:54:26.135Z,24.18
2022-10-12T13:56:59.514Z,24.22
2022-10-12T13:59:30.975Z,24.15
2022-10-12T14:02:02.922Z,24.13
2022-10-12T14:04:35.229Z,24.31
2022-10-12T14:07:07.725Z,24.21
2022-10-12T14:09:42.007Z,24.23
2022-10-12T14:12:10.866Z,24.38
2022-10-12T14:14:39.931Z,23.91
2022-10-12T14:17:06.789Z,23.82
2022-10-12T14:19:41.211Z,23.86
2022-10-12T14:22:08.384Z,24.04
2022-10-12T14:24:36.847Z,24.08
2022-10-12T14:27:08.079Z,24.09
2022-10-12T14:29:45.558Z,24.05
2022-10-12T14:32:12.003Z,23.83
2022-10-12T14:34:47.619Z,23.91
2022-10-12T14:37:17.133Z,23.89
2022-10-12T14:39:49.074Z,23.87
2022-10-12T14:42:35.977Z,24.08
2022-10-12T14:45:22.771Z,24.13
2022-10-12T14:47:49.324Z,24.04
2022-10-12T14:50:19.166Z,24.24
2022-10-12T14:52:49.183Z,24.32
2022-10-12T14:55:24.890Z,24.28
2022-10-12T14:57:51.819Z,24.30
2022-10-12T15:00:21.328Z,24.50
2022-10-12T15:02:48.546Z,24.42
2022-10-12T15:05:17.776Z,24.59
2022-10-12T15:07:45.410Z,24.65
2022-10-12T15:10:12.032Z,24.45
2022-10-12T15:12:38.570Z,24.52
2022-10-12T15:15:28.710Z,24.26
2022-10-12T15:17:55.759Z,24.22
2022-10-12T15:20:22.530Z,24.50
2022-10-12T15:22:49.083Z,24.30
2022-10-12T15:25:50.325Z,24.37
2022-10-12T15:28:16.963Z,24.45
2022-10-12T15:31:11.833Z,24.47
2022-10-12T15:33:31.119Z,24.38
2022-10-12T15:35:57.719Z,24.48
2022-10-12T15:38:24.565Z,24.51
2022-10-12T15:40:52.737Z,24.50
2022-10-12T15:43:19.887Z,24.22
2022-10-12T15:45:46.391Z,24.35
2022-10-12T15:48:12.859Z,24.13
2022-10-12T15:50:43.605Z,24.07
2022-10-12T15:53:24.822Z,24.22
2022-10-12T15:55:55.870Z,24.22
2022-10-12T15:58:22.679Z,24.17
2022-10-12T16:00:49.595Z,24.02
2022-10-12T16:03:24.557Z,24.10
2022-10-12T16:05:52.401Z,24.16
2022-10-12T16:08:18.998Z,24.32
2022-10-12T16:10:46.207Z,24.23
2022-10-12T16:13:13.619Z,24.33
2022-10-12T16:15:41.622Z,24.28
2022-10-12T16:18:08.465Z,24.31
2022-10-12T16:20:37.538Z,24.16
2022-10-12T16:23:06.963Z,24.18
2022-10-12T16:25:35.127Z,24.32
2022-10-12T16:28:01.962Z,24.23
2022-10-12T16:30:28.610Z,24.24
2022-10-12T16:32:55.264Z,24.24
2022-10-12T16:35:22.516Z,24.31
2022-10-12T16:37:49.058Z,24.49
2022-10-12T16:40:16.007Z,24.34
2022-10-12T16:42:43.198Z,24.45
2022-10-12T16:45:10.833Z,24.47
2022-10-12T16:47:42.757Z,24.32
2022-10-12T16:50:10.150Z,24.12
2022-10-12T16:52:36.665Z,24.13
2022-10-12T16:55:03.518Z,24.07
2022-10-12T16:57:30.170Z,24.05
2022-10-12T16:59:56.776Z,24.02
2022-10-12T17:02:23.302Z,23.96
2022-10-12T17:04:49.854Z,23.92
2022-10-12T17:07:17.131Z,23.96
2022-10-12T17:09:43.940Z,24.06
2022-10-12T17:12:10.538Z,24.02
2022-10-12T17:14:37.847Z,23.94
2022-10-12T17:17:05.784Z,23.83
2022-10-12T17:19:40.795Z,23.90
2022-10-12T17:22:10.049Z,24.05
2022-10-12T17:24:39.042Z,23.87
2022-10-12T17:27:07.993Z,23.93
2022-10-12T17:29:37.570Z,23.82
2022-10-12T17:32:04.245Z,23.68
2022-10-12T17:34:34.433Z,23.83
2022-10-12T17:37:02.307Z,23.71
2022-10-12T17:39:31.246Z,23.85
2022-10-12T17:41:57.778Z,23.80
2022-10-12T17:44:24.276Z,23.81
2022-10-12T17:46:50.808Z,23.76
2022-10-12T17:49:24.272Z,23.83
2022-10-12T17:51:51.562Z,23.70
2022-10-12T17:54:18.859Z,23.78
2022-10-12T17:56:45.595Z,23.79
2022-10-12T17:59:14.722Z,23.80
2022-10-12T18:01:41.498Z,23.96
2022-10-12T18:04:09.067Z,23.70
2022-10-12T18:06:35.602Z,23.71
2022-10-12T18:09:04.515Z,23.61
2022-10-12T18:11:31.401Z,23.61
2022-10-12T18:13:58.243Z,23.35
2022-10-12T18:16:27.918Z,23.73
2022-10-12T18:18:55.613Z,23.62
2022-10-12T18:21:24.850Z,23.72
2022-10-12T18:23:51.938Z,23.38
2022-10-12T18:26:20.010Z,23.42
2022-10-12T18:28:48.056Z,23.57
2022-10-12T18:31:22.699Z,23.43
2022-10-12T18:33:49.875Z,23.70
2022-10-12T18:36:17.427Z,23.93
2022-10-12T18:38:44.037Z,23.61
2022-10-12T18:41:14.220Z,23.72
2022-10-12T18:43:41.318Z,23.87
2022-10-12T18:46:14.066Z,23.72
2022-10-12T18:48:41.247Z,23.79
2022-10-12T18:51:23.850Z,23.97
2022-10-12T18:53:50.771Z,23.24
2022-10-12T18:56:19.161Z,22.87
2022-10-12T18:58:46.232Z,22.94
2022-10-12T19:01:18.832Z,22.87
2022-10-12T19:03:46.215Z,22.76
2022-10-12T19:06:15.673Z,22.80
2022-10-12T19:08:45.789Z,23.01
2022-10-12T19:11:13.435Z,22.06
2022-10-12T19:13:41.106Z,22.09
2022-10-12T19:16:11.018Z,21.87
2022-10-12T19:18:39.095Z,22.01
2022-10-12T19:21:15.852Z,22.50
2022-10-12T19:23:43.524Z,22.47
2022-10-12T19:26:13.783Z,22.43
2022-10-12T19:28:44.594Z,22.66
2022-10-12T19:31:18.014Z,22.76
2022-10-12T19:33:47.837Z,22.68
2022-10-12T19:36:16.897Z,22.55
2022-10-12T19:38:45.933Z,22.31
2022-10-12T19:41:13.341Z,22.55
2022-10-12T19:43:40.010Z,22.59
2022-10-12T19:46:08.858Z,22.52
2022-10-12T19:48:45.513Z,22.62
2022-10-12T19:51:14.084Z,22.60
2022-10-12T19:53:46.837Z,22.62
2022-10-12T19:56:16.808Z,22.66
2022-10-12T19:58:45.826Z,22.49
2022-10-12T20:01:15.705Z,22.37
2022-10-12T20:03:47.453Z,22.32
2022-10-12T20:06:14.562Z,22.25
2022-10-12T20:08:42.575Z,22.36
2022-10-12T20:11:15.503Z,22.20
2022-10-12T20:13:45.837Z,22.26
2022-10-12T20:16:13.440Z,22.28
2022-10-12T20:18:40.229Z,22.15
2022-10-12T20:21:09.035Z,22.10
2022-10-12T20:23:36.612Z,22.19
2022-10-12T20:26:09.414Z,22.14
2022-10-12T20:28:37.727Z,22.09
2022-10-12T20:31:07.396Z,22.09
2022-10-12T20:33:39.121Z,22.08
2022-10-12T20:36:18.445Z,22.16
2022-10-12T20:38:45.241Z,22.12
2022-10-12T20:41:14.145Z,22.12
2022-10-12T20:43:40.784Z,22.07
2022-10-12T20:46:11.360Z,22.12
2022-10-12T20:48:40.011Z,21.95
2022-10-12T20:51:08.326Z,22.09
2022-10-12T20:53:35.495Z,22.17
2022-10-12T20:56:06.471Z,22.08
2022-10-12T20:58:33.042Z,21.98
2022-10-12T21:01:14.073Z,21.90
2022-10-12T21:03:42.105Z,21.92
2022-10-12T21:06:12.064Z,21.84
2022-10-12T21:08:39.003Z,21.94
2022-10-12T21:11:06.446Z,21.67
2022-10-12T21:13:35.202Z,21.72
2022-10-12T21:16:01.992Z,21.62
2022-10-12T21:18:32.830Z,21.82
2022-10-12T21:21:11.701Z,21.50
2022-10-12T21:23:41.988Z,21.54
2022-10-12T21:26:19.926Z,21.33
2022-10-12T21:28:47.114Z,21.06
2022-10-12T21:31:14.484Z,21.34
2022-10-12T21:33:41.769Z,21.44
2022-10-12T21:36:20.396Z,21.31
2022-10-12T21:38:47.680Z,21.07
2022-10-12T21:41:15.713Z,21.26
2022-10-12T21:43:43.275Z,21.31
2022-10-12T21:46:18.749Z,21.22
2022-10-12T21:48:46.718Z,21.44
2022-10-12T21:51:13.690Z,21.30
2022-10-12T21:53:40.655Z,21.38
2022-10-12T21:56:14.287Z,21.37
2022-10-12T21:58:41.196Z,21.44
2022-10-12T22:01:16.349Z,21.31
2022-10-12T22:03:51.569Z,21.13
2022-10-12T22:06:20.677Z,21.07
2022-10-12T22:08:52.415Z,21.11
2022-10-12T22:11:19.217Z,20.96
2022-10-12T22:13:45.944Z,20.97
2022-10-12T22:16:14.935Z,21.05
2022-10-12T22:18:42.134Z,21.10
2022-10-12T22:21:19.001Z,21.11
2022-10-12T22:23:45.799Z,20.98
2022-10-12T22:26:18.290Z,20.96
2022-10-12T22:28:45.262Z,20.79
2022-10-12T22:31:13.807Z,20.84
2022-10-12T22:33:40.886Z,20.98
2022-10-12T22:36:11.626Z,21.04
2022-10-12T22:38:38.221Z,21.05
2022-10-12T22:41:07.121Z,21.03
2022-10-12T22:43:34.896Z,20.74
2022-10-12T22:46:01.988Z,20.71
2022-10-12T22:48:29.239Z,20.83
2022-10-12T22:50:55.981Z,20.88
2022-10-12T22:53:24.926Z,20.97
2022-10-12T22:56:17.975Z,20.79
2022-10-12T22:58:47.391Z,20.75
2022-10-12T23:01:19.831Z,20.65
2022-10-12T23:03:46.389Z,20.61
2022-10-12T23:06:14.607Z,20.63
2022-10-12T23:08:41.353Z,20.56
2022-10-12T23:11:15.935Z,20.53
2022-10-12T23:13:43.840Z,20.38
2022-10-12T23:16:19.791Z,20.47
2022-10-12T23:18:46.949Z,20.24
2022-10-12T23:21:19.728Z,20.20
2022-10-12T23:23:46.347Z,20.13
2022-10-12T23:26:19.698Z,20.17
2022-10-12T23:28:47.429Z,20.16
2022-10-12T23:31:16.052Z,20.07
2022-10-12T23:33:42.705Z,19.98
2022-10-12T23:36:14.526Z,20.04
2022-10-12T23:38:42.005Z,19.88
2022-10-12T23:41:09.552Z,20.15
2022-10-12T23:43:36.091Z,20.16
2022-10-12T23:46:03.877Z,20.08
2022-10-12T23:48:31.046Z,20.20
2022-10-12T23:50:57.531Z,20.00
2022-10-12T23:53:25.544Z,20.13
2022-10-12T23:55:52.987Z,20.10
2022-10-12T23:58:19.964Z,19.94
